Time;durP1;ratioP1;P1;durP2;ratioP2;P2;SDS_P1;SDS_P2;PMS_P1;PMS_P2;Temp;Humidity;BMP_temperature;BMP_pressure;BME280_temperature;BME280_humidity;BME280_pressure;Samples;Min_cycle;Max_cycle;Signal;HPM_P1;HPM_P2
2022/11/15 00:01:46;;;;;;;27.20;19.08;;;8.50;99.90;;;;;;5050657;28;20057;-84
2022/11/15 00:04:11;;;;;;;29.40;18.92;;;8.50;99.90;;;;;;5021616;28;20081;-85
2022/11/15 00:06:37;;;;;;;28.75;18.73;;;8.80;99.90;;;;;;5040347;28;20072;-84
2022/11/15 00:09:03;;;;;;;30.20;19.33;;;8.50;99.90;;;;;;5035478;28;20041;-85
2022/11/15 00:11:29;;;;;;;28.23;18.60;;;8.40;99.90;;;;;;5024648;28;20106;-85
2022/11/15 00:13:56;;;;;;;28.92;19.63;;;8.40;99.90;;;;;;5026086;28;20494;-85
2022/11/15 00:16:22;;;;;;;24.70;18.20;;;8.30;99.90;;;;;;5050637;28;20047;-85
2022/11/15 00:18:48;;;;;;;26.38;18.80;;;8.30;99.90;;;;;;5049479;28;20486;-85
2022/11/15 00:21:17;;;;;;;26.63;19.65;;;8.20;99.90;;;;;;5019171;28;20042;-85
2022/11/15 00:23:43;;;;;;;26.83;18.48;;;8.20;99.90;;;;;;5015819;28;20045;-85
2022/11/15 00:26:13;;;;;;;27.40;18.90;;;8.10;99.90;;;;;;5039033;28;20162;-84
2022/11/15 00:28:40;;;;;;;27.77;19.98;;;8.10;99.90;;;;;;5050155;28;20033;-85
2022/11/15 00:31:08;;;;;;;27.02;18.38;;;8.10;99.90;;;;;;5036170;28;20114;-85
2022/11/15 00:33:34;;;;;;;26.35;18.95;;;8.00;99.90;;;;;;5036146;28;20041;-85
2022/11/15 00:36:06;;;;;;;29.40;19.05;;;8.00;99.90;;;;;;5051948;28;20047;-85
2022/11/15 00:38:36;;;;;;;27.73;19.67;;;8.00;99.90;;;;;;5036960;28;20083;-85
2022/11/15 00:41:03;;;;;;;27.77;18.88;;;8.00;99.90;;;;;;5026011;28;20436;-85
2022/11/15 00:43:28;;;;;;;25.52;18.20;;;8.00;99.90;;;;;;5054343;28;20036;-85
2022/11/15 00:45:54;;;;;;;26.48;19.00;;;8.00;99.90;;;;;;5034911;28;20036;-85
2022/11/15 00:48:20;;;;;;;26.73;18.50;;;8.10;99.90;;;;;;5050458;28;20132;-85
2022/11/15 00:50:46;;;;;;;28.85;19.15;;;8.10;99.90;;;;;;5035696;28;20490;-85
2022/11/15 00:53:12;;;;;;;25.95;17.90;;;8.10;99.90;;;;;;5036540;28;20050;-85
2022/11/15 00:55:37;;;;;;;28.02;18.73;;;8.10;99.90;;;;;;5018015;28;20045;-84
2022/11/15 00:58:03;;;;;;;26.95;19.10;;;8.10;99.90;;;;;;5018721;28;20107;-86
2022/11/15 01:00:28;;;;;;;25.13;17.70;;;8.10;99.90;;;;;;5036091;28;20045;-85
2022/11/15 01:02:54;;;;;;;25.73;17.90;;;8.20;99.90;;;;;;5050448;28;20045;-85
2022/11/15 01:05:20;;;;;;;26.10;17.95;;;8.20;99.90;;;;;;5035774;28;20069;-85
2022/11/15 01:07:45;;;;;;;27.45;18.55;;;8.20;99.90;;;;;;5054667;28;20405;-85
2022/11/15 01:10:12;;;;;;;26.52;18.35;;;8.20;99.90;;;;;;5023101;28;20065;-85
2022/11/15 01:12:38;;;;;;;24.42;17.42;;;8.20;99.90;;;;;;5045453;28;20095;-85
2022/11/15 01:15:04;;;;;;;23.80;16.67;;;8.20;99.90;;;;;;5035634;28;20049;-85
2022/11/15 01:17:31;;;;;;;23.13;17.05;;;8.30;99.90;;;;;;5053298;28;20120;-85
2022/11/15 01:19:57;;;;;;;27.08;17.55;;;8.30;99.90;;;;;;5037568;28;20059;-85
2022/11/15 01:22:22;;;;;;;25.25;17.48;;;8.30;99.90;;;;;;5055243;28;20041;-85
2022/11/15 01:24:51;;;;;;;23.45;17.25;;;8.20;99.90;;;;;;5037394;28;20064;-85
2022/11/15 01:27:17;;;;;;;24.55;17.15;;;8.10;99.90;;;;;;5036759;28;20131;-85
2022/11/15 01:29:42;;;;;;;26.60;17.38;;;8.10;99.90;;;;;;5019599;28;20076;-85
2022/11/15 01:32:08;;;;;;;27.27;17.25;;;8.10;99.90;;;;;;5034913;28;20518;-86
2022/11/15 01:34:34;;;;;;;25.05;17.77;;;8.10;99.90;;;;;;5017053;28;20049;-85
2022/11/15 01:36:59;;;;;;;25.38;17.02;;;9.20;99.90;;;;;;5036098;28;20052;-85
2022/11/15 01:39:26;;;;;;;26.30;17.38;;;8.20;99.90;;;;;;5034946;28;20459;-85
2022/11/15 01:41:51;;;;;;;29.40;18.95;;;8.90;99.90;;;;;;5017864;28;20062;-85
2022/11/15 01:44:39;;;;;;;29.17;19.70;;;8.20;99.90;;;;;;5035955;28;20080;-85
2022/11/15 01:47:22;;;;;;;26.70;18.55;;;8.10;99.90;;;;;;5035643;28;20543;-85
2022/11/15 01:50:05;;;;;;;28.48;19.60;;;8.20;99.90;;;;;;5036304;28;20041;-85
2022/11/15 01:52:33;;;;;;;27.27;19.20;;;8.10;99.90;;;;;;5034557;28;20084;-84
2022/11/15 01:55:05;;;;;;;31.15;19.48;;;8.10;99.90;;;;;;5035189;28;20065;-85
2022/11/15 01:57:31;;;;;;;29.05;19.20;;;8.10;99.90;;;;;;5035801;28;20053;-85
2022/11/15 01:59:57;;;;;;;26.70;18.23;;;8.10;99.90;;;;;;5039959;28;20053;-85
2022/11/15 02:02:23;;;;;;;27.35;17.65;;;8.20;99.90;;;;;;5051277;28;20390;-85
2022/11/15 02:04:48;;;;;;;27.15;17.40;;;9.00;99.90;;;;;;5017696;28;20067;-86
2022/11/15 02:07:19;;;;;;;28.13;18.88;;;8.30;99.90;;;;;;5039356;28;20080;-85
2022/11/15 02:09:46;;;;;;;29.15;19.30;;;8.10;99.90;;;;;;5049239;28;20119;-85
2022/11/15 02:12:16;;;;;;;29.70;19.02;;;8.00;99.90;;;;;;5052559;28;20040;-85
2022/11/15 02:14:44;;;;;;;25.52;16.80;;;8.70;99.90;;;;;;5016443;28;20048;-85
2022/11/15 02:17:40;;;;;;;28.35;18.95;;;8.10;99.90;;;;;;5022097;28;20043;-85
2022/11/15 02:20:32;;;;;;;29.75;19.13;;;8.10;99.90;;;;;;5023856;28;20425;-85
2022/11/15 02:23:20;;;;;;;26.48;16.38;;;8.10;99.90;;;;;;5051062;28;20045;-85
2022/11/15 02:26:10;;;;;;;28.70;17.30;;;8.00;99.90;;;;;;5016856;28;20060;-85
2022/11/15 02:28:54;;;;;;;32.90;18.52;;;8.00;99.90;;;;;;5041305;28;20048;-86
2022/11/15 02:31:35;;;;;;;28.52;18.65;;;8.00;99.90;;;;;;5035750;28;20041;-83
2022/11/15 02:34:20;;;;;;;26.17;18.38;;;7.90;99.90;;;;;;5052125;28;20541;-85
2022/11/15 02:37:15;;;;;;;26.80;17.77;;;7.90;99.90;;;;;;5035625;28;20052;-85
2022/11/15 02:39:48;;;;;;;28.60;18.38;;;7.90;99.90;;;;;;5014860;28;20049;-86
2022/11/15 02:45:16;;;;;;;30.10;19.02;;;7.90;99.90;;;;;;5031114;28;20044;-85
2022/11/15 02:47:45;;;;;;;30.25;19.15;;;7.90;99.90;;;;;;5020582;28;20059;-85
2022/11/15 02:50:13;;;;;;;27.10;18.58;;;8.30;99.90;;;;;;5005629;28;20063;-85
2022/11/15 02:52:38;;;;;;;29.02;18.65;;;7.90;99.90;;;;;;5052273;28;20044;-85
2022/11/15 02:55:04;;;;;;;32.17;19.23;;;7.90;99.90;;;;;;5036219;28;20033;-85
2022/11/15 02:57:45;;;;;;;32.10;19.52;;;7.90;99.90;;;;;;5020343;28;20041;-85
2022/11/15 03:00:18;;;;;;;32.45;19.58;;;7.90;99.90;;;;;;5032949;28;20140;-86
2022/11/15 03:03:10;;;;;;;37.38;20.70;;;7.90;99.90;;;;;;5051277;28;20057;-85
2022/11/15 03:06:01;;;;;;;35.72;19.83;;;8.40;99.90;;;;;;5034064;28;20047;-86
2022/11/15 03:08:59;;;;;;;33.50;20.13;;;8.70;99.90;;;;;;5052426;28;20048;-86
2022/11/15 03:11:25;;;;;;;33.08;19.45;;;7.80;99.90;;;;;;5022159;28;20055;-86
2022/11/15 03:13:58;;;;;;;33.83;20.75;;;7.90;99.90;;;;;;5035146;28;20124;-86
2022/11/15 03:16:35;;;;;;;38.47;20.98;;;7.90;99.90;;;;;;5042171;28;20042;-86
2022/11/15 03:19:26;;;;;;;35.38;21.70;;;7.90;99.90;;;;;;5015497;28;20058;-85
2022/11/15 03:21:54;;;;;;;37.90;20.23;;;8.90;99.90;;;;;;5015132;28;20482;-86
2022/11/15 03:24:20;;;;;;;37.92;21.02;;;7.90;99.90;;;;;;5033273;28;20113;-86
2022/11/15 03:26:50;;;;;;;38.47;21.48;;;7.90;99.90;;;;;;5033121;28;20072;-85
2022/11/15 03:29:22;;;;;;;36.05;21.65;;;7.90;99.90;;;;;;5049435;28;20037;-86
2022/11/15 03:31:55;;;;;;;39.95;21.33;;;8.00;99.90;;;;;;5018583;28;20056;-86
2022/11/15 03:34:35;;;;;;;36.30;20.58;;;8.00;99.90;;;;;;5035591;28;20450;-86
2022/11/15 03:37:01;;;;;;;39.22;21.38;;;8.00;99.90;;;;;;5024650;28;20357;-86
2022/11/15 03:39:28;;;;;;;38.40;20.95;;;8.00;99.90;;;;;;5033900;28;20144;-86
2022/11/15 03:42:15;;;;;;;36.72;21.52;;;8.00;99.90;;;;;;5033875;28;20111;-86
2022/11/15 03:45:02;;;;;;;34.72;19.73;;;8.00;99.90;;;;;;5017198;28;20399;-84
2022/11/15 03:48:03;;;;;;;39.28;21.77;;;8.00;99.90;;;;;;5034370;28;20049;-85
2022/11/15 03:50:29;;;;;;;37.65;21.75;;;8.00;99.90;;;;;;5020529;28;20155;-85
2022/11/15 03:52:56;;;;;;;37.17;20.50;;;8.00;99.90;;;;;;5016673;28;20041;-85
2022/11/15 03:55:22;;;;;;;38.17;21.40;;;8.00;99.90;;;;;;5032260;28;20077;-85
2022/11/15 03:57:50;;;;;;;35.83;21.05;;;8.10;99.90;;;;;;5014844;28;20100;-85
2022/11/15 04:00:16;;;;;;;37.15;20.42;;;8.10;99.90;;;;;;5032353;28;20097;-86
2022/11/15 04:02:42;;;;;;;39.67;21.33;;;8.10;99.90;;;;;;5018143;28;20080;-85
2022/11/15 04:05:08;;;;;;;35.70;20.25;;;8.10;99.90;;;;;;5038815;28;20556;-86
2022/11/15 04:07:33;;;;;;;35.03;20.13;;;8.20;99.90;;;;;;5038123;28;20049;-85
2022/11/15 04:10:02;;;;;;;34.45;19.92;;;8.10;99.90;;;;;;5025146;28;20050;-86
2022/11/15 04:12:31;;;;;;;37.38;20.88;;;8.10;99.90;;;;;;5056213;28;20080;-85
2022/11/15 04:15:07;;;;;;;37.25;19.92;;;8.10;99.90;;;;;;5043378;28;20042;-86
2022/11/15 04:17:37;;;;;;;34.50;19.30;;;8.10;99.90;;;;;;5037375;28;20045;-85
2022/11/15 04:25:53;;;;;;;38.05;21.30;;;8.30;99.90;;;;;;5053696;28;20483;-86
2022/11/15 04:28:19;;;;;;;37.78;21.52;;;8.30;99.90;;;;;;5018721;28;20049;-86
2022/11/15 04:30:45;;;;;;;40.53;20.63;;;8.20;99.90;;;;;;5019656;28;20052;-86
2022/11/15 04:33:11;;;;;;;39.00;20.95;;;8.30;99.90;;;;;;5019414;28;20102;-86
2022/11/15 04:35:37;;;;;;;38.53;21.70;;;8.30;99.90;;;;;;5037171;28;20121;-85
2022/11/15 04:38:05;;;;;;;42.13;21.38;;;8.30;99.90;;;;;;5024366;28;20053;-86
2022/11/15 04:40:30;;;;;;;41.38;21.77;;;8.30;99.90;;;;;;5028710;28;20068;-86
2022/11/15 04:42:56;;;;;;;43.08;22.33;;;8.30;99.90;;;;;;5039634;28;20041;-86
2022/11/15 04:45:22;;;;;;;44.72;22.60;;;8.30;99.90;;;;;;5055518;28;20044;-86
2022/11/15 04:47:48;;;;;;;47.22;23.42;;;9.10;99.90;;;;;;5019554;28;20048;-86
2022/11/15 04:50:14;;;;;;;43.97;22.58;;;8.30;99.90;;;;;;5048693;28;20037;-85
2022/11/15 04:52:51;;;;;;;44.20;22.50;;;8.30;99.90;;;;;;5019505;28;20048;-85
2022/11/15 04:55:16;;;;;;;47.05;23.35;;;8.30;99.90;;;;;;5019322;28;20076;-85
2022/11/15 04:57:42;;;;;;;44.10;22.38;;;8.40;99.90;;;;;;5018857;28;20138;-85
2022/11/15 05:00:11;;;;;;;45.20;22.25;;;8.60;99.90;;;;;;5023713;28;20130;-86
2022/11/15 05:05:21;;;;;;;52.15;24.35;;;8.40;99.90;;;;;;5073785;28;20044;-86
2022/11/15 05:07:46;;;;;;;58.42;25.15;;;9.50;99.90;;;;;;5053909;28;20071;-86
2022/11/15 05:10:12;;;;;;;55.90;25.20;;;8.40;99.90;;;;;;5069278;28;20044;-85
2022/11/15 05:12:38;;;;;;;49.72;24.65;;;8.40;99.90;;;;;;5037335;28;20045;-86
2022/11/15 05:15:04;;;;;;;48.30;25.20;;;9.00;99.90;;;;;;5044471;28;20393;-86
2022/11/15 05:17:30;;;;;;;50.15;24.92;;;8.40;99.90;;;;;;5074207;28;20037;-86
2022/11/15 05:19:55;;;;;;;61.45;26.50;;;8.40;99.90;;;;;;5057392;28;20056;-85
2022/11/15 05:22:21;;;;;;;60.80;27.20;;;8.50;99.90;;;;;;5040867;28;20079;-86
2022/11/15 05:24:47;;;;;;;57.33;26.45;;;9.30;99.90;;;;;;5076251;28;20040;-85
2022/11/15 05:27:13;;;;;;;63.30;28.23;;;8.60;99.90;;;;;;5067453;28;20045;-86
2022/11/15 05:29:38;;;;;;;61.70;27.27;;;8.50;99.90;;;;;;5054848;28;20052;-85
2022/11/15 05:32:06;;;;;;;66.25;28.60;;;8.80;99.90;;;;;;5054757;28;20040;-85
2022/11/15 05:34:32;;;;;;;67.13;28.27;;;8.60;99.90;;;;;;5054864;28;20091;-86
2022/11/15 05:36:58;;;;;;;71.03;30.00;;;8.60;99.90;;;;;;5052926;28;20037;-85
2022/11/15 05:39:25;;;;;;;77.13;31.30;;;8.60;99.90;;;;;;5035244;28;20478;-85
2022/11/15 05:41:59;;;;;;;75.97;29.90;;;8.60;99.90;;;;;;5020254;28;20045;-86
2022/11/15 05:44:26;;;;;;;70.35;30.10;;;9.20;99.90;;;;;;5073200;28;20482;-86
2022/11/15 05:46:54;;;;;;;76.55;31.30;;;8.70;99.90;;;;;;5035246;28;20045;-85
2022/11/15 05:49:26;;;;;;;80.85;31.67;;;8.80;99.90;;;;;;5055523;28;20080;-86
2022/11/15 05:51:53;;;;;;;73.05;32.58;;;9.50;99.90;;;;;;5057676;28;20041;-86
2022/11/15 05:54:21;;;;;;;91.80;32.53;;;8.80;99.90;;;;;;5071931;28;20043;-85
2022/11/15 05:56:47;;;;;;;80.38;31.70;;;9.20;99.90;;;;;;5060069;28;20051;-85
2022/11/15 05:59:13;;;;;;;80.00;33.58;;;8.80;99.90;;;;;;5070328;28;20397;-85
2022/11/15 06:01:39;;;;;;;82.18;34.67;;;8.90;99.90;;;;;;5054859;28;20049;-85
2022/11/15 06:04:05;;;;;;;90.72;34.38;;;8.90;99.90;;;;;;5034556;28;20048;-85
2022/11/15 06:06:30;;;;;;;85.50;33.67;;;10.00;99.90;;;;;;5040429;28;20124;-85
2022/11/15 06:08:56;;;;;;;94.47;35.72;;;9.30;99.90;;;;;;5053379;28;20048;-85
2022/11/15 06:11:21;;;;;;;89.30;35.97;;;9.00;99.90;;;;;;5053366;28;20415;-85
2022/11/15 06:13:47;;;;;;;96.28;36.78;;;9.80;99.90;;;;;;5040769;28;20120;-84
2022/11/15 06:16:13;;;;;;;95.90;36.28;;;9.00;99.90;;;;;;5034681;28;20067;-85
2022/11/15 06:18:38;;;;;;;98.88;35.97;;;9.10;99.90;;;;;;5029105;28;20052;-85
2022/11/15 06:21:05;;;;;;;99.82;35.95;;;9.10;99.90;;;;;;5034653;28;20061;-84
2022/11/15 06:23:34;;;;;;;94.00;36.63;;;9.10;99.90;;;;;;5009153;28;20045;-85
2022/11/15 06:26:01;;;;;;;95.30;37.17;;;9.10;99.90;;;;;;5034989;28;20054;-85
2022/11/15 06:28:32;;;;;;;92.50;37.00;;;9.30;99.90;;;;;;5034598;28;20127;-86
2022/11/15 06:31:09;;;;;;;92.93;36.67;;;9.10;99.90;;;;;;5034556;28;20378;-86
2022/11/15 06:33:34;;;;;;;87.90;37.17;;;9.20;99.90;;;;;;5017519;28;20110;-86
2022/11/15 06:36:05;;;;;;;84.97;35.75;;;9.20;99.90;;;;;;5050562;28;20120;-86
2022/11/15 06:38:30;;;;;;;84.85;36.83;;;9.30;99.90;;;;;;5035168;28;20056;-86
2022/11/15 06:41:02;;;;;;;89.07;37.95;;;9.30;99.90;;;;;;5033775;28;20041;-84
2022/11/15 06:43:27;;;;;;;83.30;36.03;;;9.40;99.90;;;;;;5053222;28;20506;-84
2022/11/15 06:45:53;;;;;;;94.15;37.65;;;9.50;99.90;;;;;;5053620;28;20041;-84
2022/11/15 06:48:19;;;;;;;85.85;35.75;;;9.50;99.90;;;;;;5019201;28;20067;-84
2022/11/15 06:50:54;;;;;;;84.88;35.03;;;9.80;99.90;;;;;;5053944;28;20094;-84
2022/11/15 06:53:20;;;;;;;93.30;38.03;;;9.60;99.90;;;;;;5035806;28;20045;-84
2022/11/15 06:55:45;;;;;;;90.13;38.08;;;10.60;99.90;;;;;;5051812;28;20299;-84
2022/11/15 06:58:11;;;;;;;89.97;37.58;;;9.60;99.90;;;;;;5035120;28;20072;-84
2022/11/15 07:00:37;;;;;;;92.00;37.85;;;9.60;99.90;;;;;;5042671;28;20094;-84
2022/11/15 07:03:03;;;;;;;83.75;35.67;;;10.60;99.90;;;;;;5055076;28;20052;-84
2022/11/15 07:05:29;;;;;;;73.97;34.28;;;10.80;99.90;;;;;;5053404;28;20131;-84
2022/11/15 07:07:56;;;;;;;88.38;36.22;;;9.80;99.90;;;;;;5054785;28;20331;-84
2022/11/15 07:10:24;;;;;;;78.55;35.50;;;9.80;99.90;;;;;;5055337;28;20084;-84
2022/11/15 07:12:54;;;;;;;81.97;35.67;;;9.80;99.90;;;;;;5055055;28;20053;-84
2022/11/15 07:15:22;;;;;;;89.03;37.28;;;9.90;99.90;;;;;;5072701;28;20040;-83
2022/11/15 07:17:48;;;;;;;94.20;37.85;;;9.90;99.90;;;;;;5072820;28;20094;-83
2022/11/15 07:20:14;;;;;;;91.18;35.95;;;9.90;99.90;;;;;;5040386;28;20041;-84
2022/11/15 07:22:40;;;;;;;93.28;37.58;;;9.90;99.90;;;;;;5053912;28;20094;-84
2022/11/15 07:25:07;;;;;;;89.25;38.15;;;10.00;99.90;;;;;;5070628;28;20049;-83
2022/11/15 07:27:32;;;;;;;81.47;36.50;;;10.00;99.90;;;;;;5025423;28;20044;-84
2022/11/15 07:29:58;;;;;;;86.57;36.58;;;10.00;99.90;;;;;;5053394;28;20041;-84
2022/11/15 07:32:25;;;;;;;77.90;35.55;;;10.10;99.90;;;;;;5045606;28;20462;-84
2022/11/15 07:34:50;;;;;;;82.68;36.42;;;11.00;99.90;;;;;;5035290;28;20454;-84
2022/11/15 07:37:16;;;;;;;80.20;34.67;;;10.80;99.90;;;;;;5066935;28;20075;-83
2022/11/15 07:39:43;;;;;;;76.97;34.42;;;10.20;99.90;;;;;;5054513;28;20037;-83
2022/11/15 07:44:53;;;;;;;73.13;34.60;;;11.10;99.90;;;;;;5072393;28;20053;-83
2022/11/15 07:47:19;;;;;;;76.55;34.90;;;10.20;99.90;;;;;;5053876;28;20447;-83
2022/11/15 07:49:45;;;;;;;68.68;33.45;;;10.30;99.90;;;;;;5072059;28;20127;-83
2022/11/15 07:52:12;;;;;;;74.93;35.13;;;10.30;99.90;;;;;;5069609;28;20064;-83
2022/11/15 07:54:37;;;;;;;69.50;33.17;;;10.30;99.90;;;;;;5051870;28;20159;-84
2022/11/15 07:57:04;;;;;;;68.97;34.33;;;11.50;99.90;;;;;;5052147;28;20398;-83
2022/11/15 07:59:30;;;;;;;69.15;33.50;;;10.30;99.90;;;;;;5034298;28;20064;-83
2022/11/15 08:01:55;;;;;;;61.03;31.33;;;10.40;99.90;;;;;;5033799;28;20048;-83
2022/11/15 08:04:21;;;;;;;64.38;32.78;;;10.40;99.90;;;;;;5051997;28;20041;-83
2022/11/15 08:06:47;;;;;;;69.55;32.22;;;11.30;99.90;;;;;;5035410;28;20036;-87
2022/11/15 08:09:12;;;;;;;61.40;32.42;;;11.00;99.90;;;;;;5041379;28;20513;-85
2022/11/15 08:11:38;;;;;;;74.05;33.88;;;10.50;99.90;;;;;;5036783;28;20393;-82
2022/11/15 08:14:04;;;;;;;59.67;31.85;;;10.60;99.90;;;;;;5052081;28;20099;-84
2022/11/15 08:16:30;;;;;;;62.75;31.35;;;10.60;99.90;;;;;;5025812;28;20465;-83
2022/11/15 08:18:55;;;;;;;62.55;30.90;;;10.60;99.90;;;;;;5049035;28;20056;-83
2022/11/15 08:21:22;;;;;;;58.92;29.52;;;10.70;99.90;;;;;;5039606;28;20044;-85
2022/11/15 08:23:48;;;;;;;58.25;30.27;;;10.70;99.90;;;;;;5047274;28;20048;-83
2022/11/15 08:26:14;;;;;;;54.63;29.67;;;10.70;99.90;;;;;;5016512;28;20037;-83
2022/11/15 08:28:40;;;;;;;54.55;28.75;;;10.80;99.90;;;;;;5032641;28;20091;-83
2022/11/15 08:31:06;;;;;;;55.00;28.95;;;10.80;99.90;;;;;;5016486;28;20080;-83
2022/11/15 08:33:32;;;;;;;52.88;27.83;;;10.80;99.90;;;;;;5032376;28;20475;-83
2022/11/15 08:35:59;;;;;;;48.72;28.17;;;10.80;99.90;;;;;;5050883;28;20490;-83
2022/11/15 08:38:26;;;;;;;49.20;27.10;;;12.10;99.90;;;;;;5033196;28;20069;-83
2022/11/15 08:40:54;;;;;;;44.30;27.58;;;11.40;99.90;;;;;;5016162;28;20045;-83
2022/11/15 08:43:19;;;;;;;49.60;27.95;;;10.90;99.90;;;;;;5033447;28;20049;-83
2022/11/15 08:45:45;;;;;;;45.25;26.13;;;10.90;99.90;;;;;;5051792;28;20449;-83
2022/11/15 08:48:11;;;;;;;45.90;27.23;;;10.70;99.90;;;;;;5032199;28;20465;-82
2022/11/15 08:50:37;;;;;;;43.25;26.50;;;11.00;99.90;;;;;;5054486;28;20047;-82
2022/11/15 08:53:10;;;;;;;43.15;25.10;;;11.00;99.90;;;;;;5037761;28;20098;-83
2022/11/15 08:55:37;;;;;;;42.95;24.95;;;11.10;99.90;;;;;;5056906;28;20040;-82
2022/11/15 08:58:03;;;;;;;38.05;24.35;;;11.10;99.90;;;;;;5040542;28;20402;-82
2022/11/15 09:00:29;;;;;;;41.22;23.50;;;11.20;99.90;;;;;;5066374;28;20515;-81
2022/11/15 09:02:55;;;;;;;40.72;23.98;;;11.20;99.90;;;;;;5053560;28;20052;-82
2022/11/15 09:05:21;;;;;;;36.83;23.55;;;11.30;99.90;;;;;;5035312;28;20037;-81
2022/11/15 09:07:46;;;;;;;37.88;22.13;;;11.30;99.90;;;;;;5053768;28;20504;-85
2022/11/15 09:10:12;;;;;;;37.17;21.80;;;11.40;99.90;;;;;;5019525;28;20076;-82
2022/11/15 09:12:38;;;;;;;32.83;21.98;;;11.40;99.90;;;;;;5036717;28;20041;-82
2022/11/15 09:15:05;;;;;;;34.50;19.08;;;11.40;99.90;;;;;;5026985;28;20475;-84
2022/11/15 09:17:30;;;;;;;30.95;21.33;;;11.50;99.90;;;;;;5021444;28;20052;-84
2022/11/15 09:19:56;;;;;;;31.10;19.52;;;;;;;;;;5012223;28;20083;-86
2022/11/15 09:22:22;;;;;;;33.47;19.20;;;;;;;;;;5006498;28;20173;-84
2022/11/15 09:24:48;;;;;;;32.90;21.00;;;;;;;;;;5006733;28;20129;-84
2022/11/15 09:27:14;;;;;;;30.92;20.25;;;;;;;;;;5005294;28;20052;-84
2022/11/15 09:29:40;;;;;;;31.92;19.92;;;;;;;;;;5003432;28;20403;-83
2022/11/15 09:32:07;;;;;;;31.35;20.15;;;;;;;;;;5004991;28;20551;-83
2022/11/15 09:34:33;;;;;;;30.92;19.88;;;;;;;;;;5003357;28;20045;-83
2022/11/15 09:36:59;;;;;;;25.90;18.92;;;;;;;;;;5001064;28;20048;-84
2022/11/15 09:39:25;;;;;;;28.50;18.05;;;;;;;;;;5001525;28;20045;-83
2022/11/15 09:41:57;;;;;;;28.25;19.02;;;;;;;;;;4998943;28;20045;-84
2022/11/15 09:44:23;;;;;;;30.25;19.95;;;;;;;;;;5016667;28;20053;-84
2022/11/15 09:46:56;;;;;;;27.10;17.73;;;;;;;;;;5033824;28;20141;-84
2022/11/15 09:49:22;;;;;;;30.75;18.55;;;;;;;;;;5035154;28;20478;-84
2022/11/15 09:51:50;;;;;;;25.05;18.52;;;;;;;;;;5034446;28;20421;-84
2022/11/15 09:54:31;;;;;;;27.75;18.45;;;;;;;;;;5017053;28;20414;-84
2022/11/15 09:57:03;;;;;;;27.40;19.25;;;;;;;;;;5034273;28;20232;-84
2022/11/15 09:59:32;;;;;;;27.40;17.63;;;;;;;;;;5033700;28;20049;-84
2022/11/15 10:02:13;;;;;;;26.70;18.38;;;;;;;;;;5035671;28;20410;-84
2022/11/15 10:04:40;;;;;;;23.85;16.15;;;;;;;;;;5036270;28;20095;-85
2022/11/15 10:07:25;;;;;;;23.90;16.88;;;;;;;;;;5037030;28;20066;-84
2022/11/15 10:09:50;;;;;;;28.17;18.02;;;;;;;;;;5036734;28;20150;-84
2022/11/15 10:12:18;;;;;;;28.50;17.45;;;;;;;;;;5019408;28;20049;-84
2022/11/15 10:14:44;;;;;;;30.50;17.67;;;;;;;;;;5037054;28;20045;-84
2022/11/15 10:17:18;;;;;;;24.52;16.58;;;;;;;;;;5036312;28;20077;-85
2022/11/15 10:20:03;;;;;;;26.90;16.60;;;;;;;;;;5020331;28;20084;-84
2022/11/15 10:22:35;;;;;;;25.85;15.15;;;;;;;;;;5036134;28;20131;-84
2022/11/15 10:25:12;;;;;;;23.88;16.42;;;;;;;;;;5035802;28;20044;-84
2022/11/15 10:27:39;;;;;;;27.85;16.52;;;;;;;;;;5034928;28;20379;-84
2022/11/15 10:30:10;;;;;;;26.17;16.88;;;;;;;;;;5053550;28;20044;-84
2022/11/15 10:32:36;;;;;;;25.25;15.82;;;;;;;;;;5053925;28;20056;-84
2022/11/15 10:35:16;;;;;;;28.48;16.55;;;;;;;;;;5035928;28;20049;-85
2022/11/15 10:37:42;;;;;;;24.52;16.27;;;;;;;;;;5018677;28;20105;-85
2022/11/15 10:40:28;;;;;;;26.15;16.90;;;;;;;;;;5019318;28;20143;-85
2022/11/15 10:43:05;;;;;;;25.48;16.25;;;;;;;;;;5019964;28;20041;-85
2022/11/15 10:45:32;;;;;;;22.58;15.63;;;;;;;;;;5034877;28;20041;-85
2022/11/15 10:48:13;;;;;;;24.52;16.05;;;;;;;;;;5065861;28;20066;-85
2022/11/15 10:50:44;;;;;;;25.00;15.82;;;;;;;;;;5055731;28;20378;-85
2022/11/15 10:53:16;;;;;;;26.05;15.35;;;;;;;;;;5055433;28;20045;-84
2022/11/15 10:55:46;;;;;;;22.58;16.08;;;;;;;;;;5073051;28;20469;-84
2022/11/15 10:58:28;;;;;;;22.48;15.55;;;;;;;;;;5054628;28;20044;-85
2022/11/15 11:00:54;;;;;;;27.35;15.98;;;;;;;;;;5051904;28;20045;-85
2022/11/15 11:03:23;;;;;;;22.65;16.20;;;;;;;;;;5052906;28;20074;-85
2022/11/15 11:06:02;;;;;;;24.40;16.42;;;;;;;;;;5052023;28;20137;-85
2022/11/15 11:08:28;;;;;;;28.17;17.05;;;;;;;;;;5052887;28;20565;-84
2022/11/15 11:10:55;;;;;;;26.77;17.63;;;;;;;;;;5051878;28;20080;-85
2022/11/15 11:13:25;;;;;;;26.95;16.85;;;;;;;;;;5053455;28;20442;-85
2022/11/15 11:16:04;;;;;;;28.05;16.77;;;;;;;;;;5052518;28;20486;-85
2022/11/15 11:18:38;;;;;;;26.50;16.95;;;;;;;;;;5034781;28;20064;-85
2022/11/15 11:21:08;;;;;;;26.77;17.58;;;;;;;;;;5032122;28;20441;-85
2022/11/15 11:23:34;;;;;;;28.50;17.60;;;;;;;;;;5033475;28;20418;-84
2022/11/15 11:26:19;;;;;;;26.60;16.38;;;;;;;;;;5033652;28;20049;-84
2022/11/15 11:28:57;;;;;;;24.80;17.65;;;;;;;;;;5032214;28;20049;-85
2022/11/15 11:31:34;;;;;;;24.65;17.17;;;;;;;;;;5030745;28;20064;-85
2022/11/15 11:34:04;;;;;;;26.38;17.55;;;;;;;;;;5031393;28;20037;-85
2022/11/15 11:36:40;;;;;;;24.30;16.95;;;;;;;;;;5031498;28;20505;-84
2022/11/15 11:39:06;;;;;;;;;;;;;;;;;;5031734;28;20574;-84
2022/11/15 11:41:51;;;;;;;20.20;14.85;;;;;;;;;;5031153;28;19957;-85
2022/11/15 11:44:23;;;;;;;25.02;16.08;;;;;;;;;;5031497;28;20049;-85
2022/11/15 11:46:54;;;;;;;26.52;15.27;;;;;;;;;;5030303;28;20175;-84
2022/11/15 11:49:24;;;;;;;21.23;14.77;;;;;;;;;;5030641;28;20049;-84
2022/11/15 11:52:01;;;;;;;20.23;13.00;;;;;;;;;;5030333;28;20041;-84
2022/11/15 11:54:35;;;;;;;19.42;12.75;;;;;;;;;;5032651;28;20089;-84
2022/11/15 11:57:03;;;;;;;17.05;11.43;;;;;;;;;;5031678;28;20132;-85
2022/11/15 11:59:34;;;;;;;14.30;10.93;;;;;;;;;;5032053;28;20053;-85
2022/11/15 12:02:03;;;;;;;13.60;9.70;;;;;;;;;;5034650;28;20630;-85
2022/11/15 12:04:36;;;;;;;17.33;10.50;;;;;;;;;;5035812;28;20120;-85
2022/11/15 12:07:11;;;;;;;11.18;8.07;;;;;;;;;;5034584;28;20060;-85
2022/11/15 12:09:44;;;;;;;11.82;8.43;;;;;;;;;;5034083;28;20051;-85
2022/11/15 12:12:10;;;;;;;11.55;8.32;;;;;;;;;;5051972;28;20049;-85
2022/11/15 12:14:36;;;;;;;9.10;6.88;;;;;;;;;;5034113;28;20041;-84
2022/11/15 12:17:02;;;;;;;11.90;7.25;;;;;;;;;;5050118;28;20208;-84
2022/11/15 12:19:29;;;;;;;11.43;7.68;;;;;;;;;;5033653;28;20064;-84
2022/11/15 12:21:59;;;;;;;9.10;6.63;;;;;;;;;;5034003;28;20489;-85
2022/11/15 12:24:32;;;;;;;9.52;7.00;;;;;;;;;;5053861;28;20091;-85
2022/11/15 12:27:02;;;;;;;9.38;6.30;;;;;;;;;;5038398;28;20037;-85
2022/11/15 12:29:48;;;;;;;10.32;6.57;;;;;;;;;;5037773;28;20117;-85
2022/11/15 12:32:25;;;;;;;8.80;6.00;;;;;;;;;;5038209;28;20402;-86
2022/11/15 12:34:52;;;;;;;11.20;5.53;;;;;;;;;;5021533;28;20044;-82
2022/11/15 12:37:35;;;;;;;10.48;5.70;;;;;;;;;;5055982;28;20037;-84
2022/11/15 12:40:06;;;;;;;9.70;5.40;;;;;;;;;;5055256;28;20429;-83
2022/11/15 12:42:42;;;;;;;9.05;5.70;;;;;;;;;;5020273;28;20371;-83
2022/11/15 12:45:29;;;;;;;9.52;5.95;;;;;;;;;;5055569;28;20045;-83
2022/11/15 12:48:12;;;;;;;11.63;6.10;;;;;;;;;;5037071;28;20055;-83
2022/11/15 12:50:50;;;;;;;9.20;5.80;;;;;;;;;;5020977;28;20053;-85
2022/11/15 12:53:26;;;;;;;10.65;5.53;;;;;;;;;;5055699;28;20124;-85
2022/11/15 12:56:15;;;;;;;9.88;5.30;;;;;;;;;;5038029;28;20454;-85
2022/11/15 12:58:47;;;;;;;12.75;5.55;;;;;;;;;;5011260;28;20094;-87
2022/11/15 13:01:33;;;;;;;10.73;5.25;;;;;;;;;;5039605;28;20057;-90
2022/11/15 13:04:13;;;;;;;10.02;4.78;;;;;;;;;;5059940;28;20055;-90
2022/11/15 13:06:56;;;;;;;8.40;5.10;;;;;;;;;;5039280;28;20055;-84
2022/11/15 13:09:28;;;;;;;8.75;4.65;;;;;;;;;;5059293;28;20137;-89
2022/11/15 13:11:55;;;;;;;6.20;4.30;;;;;;;;;;5057103;28;20044;-83
2022/11/15 13:14:47;;;;;;;8.70;4.13;;;;;;;;;;5074105;28;20048;-83
2022/11/15 13:17:19;;;;;;;7.70;4.07;;;;;;;;;;5070237;28;20083;-83
2022/11/15 13:19:53;;;;;;;8.57;4.13;;;;;;;;;;5074336;28;20431;-83
2022/11/15 13:25:04;;;;;;;7.47;4.13;;;;;;;;;;5074071;28;20140;-83
2022/11/15 13:27:30;;;;;;;7.00;4.30;;;;;;;;;;5073975;28;20036;-83
2022/11/15 13:29:56;;;;;;;5.65;4.13;;;;;;;;;;5074556;28;20583;-83
2022/11/15 13:32:22;;;;;;;7.32;4.20;;;;;;;;;;5056634;28;20087;-83
2022/11/15 13:34:52;;;;;;;10.48;4.40;;;;;;;;;;5056200;28;20040;-83
2022/11/15 13:37:21;;;;;;;11.38;4.82;;;;;;;;;;5073606;28;20045;-83
2022/11/15 13:39:48;;;;;;;7.75;4.40;;;;;;;;;;5055853;28;20044;-83